Time,TemperatureF,DewpointF,PressureIn,WindDirection,WindDirectionDegrees,WindSpeedMPH,WindSpeedGustMPH,Humidity,HourlyPrecipIn,Conditions,Clouds,dailyrainin,SoftwareType,DateUTC
2013-01-19 00:02:00,43.0,27.0,30.24,SSW,198,4.0,8.0,52,0.00,,,0.00,,2013-01-19 06:02:00,
2013-01-19 00:12:00,43.0,27.0,30.24,SSW,198,4.0,8.0,52,0.00,,,0.00,,2013-01-19 06:12:00,
2013-01-19 00:22:00,43.0,26.0,30.24,SSW,210,3.0,7.0,51,0.00,,,0.00,,2013-01-19 06:22:00,
2013-01-19 00:32:00,43.0,26.0,30.24,South,188,5.0,9.0,51,0.00,,,0.00,,2013-01-19 06:32:00,
2013-01-19 00:43:00,43.0,26.0,30.24,South,188,5.0,9.0,51,0.00,,,0.00,,2013-01-19 06:43:00,
2013-01-19 00:52:00,43.0,26.0,30.24,SSE,155,5.0,10.0,51,0.00,,,0.00,,2013-01-19 06:52:00,
2013-01-19 01:02:00,44.0,27.0,30.24,SSE,162,5.0,9.0,51,0.00,,,0.00,,2013-01-19 07:02:00,
2013-01-19 01:12:00,44.0,27.0,30.24,SSE,162,5.0,9.0,51,0.00,,,0.00,,2013-01-19 07:12:00,
2013-01-19 01:22:00,43.0,26.0,30.24,SSW,195,4.0,7.0,51,0.00,,,0.00,,2013-01-19 07:22:00,
2013-01-19 01:32:00,43.0,27.0,30.24,South,169,3.0,7.0,52,0.00,,,0.00,,2013-01-19 07:32:00,
2013-01-19 01:42:00,43.0,27.0,30.24,South,169,3.0,7.0,52,0.00,,,0.00,,2013-01-19 07:42:00,
2013-01-19 01:52:00,43.0,27.0,30.23,SSW,200,2.0,8.0,52,0.00,,,0.00,,2013-01-19 07:52:00,
2013-01-19 02:02:00,43.0,27.0,30.24,SSW,213,2.0,5.0,52,0.00,,,0.00,,2013-01-19 08:02:00,
2013-01-19 02:12:00,43.0,27.0,30.24,SSW,213,2.0,5.0,52,0.00,,,0.00,,2013-01-19 08:12:00,
2013-01-19 02:22:00,42.0,26.0,30.24,SSE,154,2.0,4.0,52,0.00,,,0.00,,2013-01-19 08:22:00,
2013-01-19 02:32:00,42.0,26.0,30.24,SSE,150,0.0,3.0,53,0.00,,,0.00,,2013-01-19 08:32:00,
2013-01-19 02:42:00,42.0,26.0,30.24,SSE,150,0.0,3.0,53,0.00,,,0.00,,2013-01-19 08:42:00,
2013-01-19 02:52:00,40.0,26.0,30.24,ESE,102,0.0,1.0,58,0.00,,,0.00,,2013-01-19 08:52:00,
2013-01-19 03:02:00,40.0,26.0,30.23,ESE,112,0.0,3.0,57,0.00,,,0.00,,2013-01-19 09:02:00,
2013-01-19 03:12:00,40.0,26.0,30.23,ESE,112,0.0,3.0,57,0.00,,,0.00,,2013-01-19 09:12:00,
2013-01-19 03:22:00,40.0,26.0,30.23,SE,130,1.0,3.0,58,0.00,,,0.00,,2013-01-19 09:22:00,
2013-01-19 03:32:00,40.0,26.0,30.22,SE,129,1.0,3.0,58,0.00,,,0.00,,2013-01-19 09:32:00,
2013-01-19 03:42:00,40.0,26.0,30.22,SE,129,1.0,3.0,58,0.00,,,0.00,,2013-01-19 09:42:00,
2013-01-19 03:52:00,39.0,26.0,30.22,SE,146,0.0,1.0,60,0.00,,,0.00,,2013-01-19 09:52:00,
2013-01-19 04:02:00,35.0,25.0,30.21,SE,146,0.0,0.0,67,0.00,,,0.00,,2013-01-19 10:02:00,
2013-01-19 04:12:00,35.0,25.0,30.21,SE,146,0.0,0.0,67,0.00,,,0.00,,2013-01-19 10:12:00,
2013-01-19 04:22:00,34.0,26.0,30.21,SE,142,0.0,1.0,71,0.00,,,0.00,,2013-01-19 10:22:00,
2013-01-19 04:32:00,36.0,26.0,30.20,SE,139,0.0,2.0,66,0.00,,,0.00,,2013-01-19 10:32:00,
2013-01-19 04:42:00,36.0,26.0,30.20,SE,139,0.0,2.0,66,0.00,,,0.00,,2013-01-19 10:42:00,
2013-01-19 04:52:00,36.0,26.0,30.20,SE,139,0.0,2.0,66,0.00,,,0.00,,2013-01-19 10:52:00,
2013-01-19 05:03:00,35.0,25.0,30.20,SSE,156,0.0,2.0,67,0.00,,,0.00,,2013-01-19 11:03:00,
2013-01-19 05:12:00,35.0,25.0,30.20,SSE,156,0.0,2.0,67,0.00,,,0.00,,2013-01-19 11:12:00,
2013-01-19 06:48:00,31.0,25.0,30.19,SSE,155,0.0,0.0,78,0.00,,,0.00,,2013-01-19 12:48:00,
2013-01-19 07:03:00,30.0,25.0,30.19,SSE,155,0.0,0.0,80,0.00,,,0.00,,2013-01-19 13:03:00,
2013-01-19 07:12:00,30.0,25.0,30.19,SSE,155,0.0,0.0,80,0.00,,,0.00,,2013-01-19 13:12:00,
2013-01-19 07:22:00,29.0,24.0,30.19,SSE,155,0.0,0.0,81,0.00,,,0.00,,2013-01-19 13:22:00,
2013-01-19 07:33:00,29.0,25.0,30.19,SSE,155,0.0,0.0,83,0.00,,,0.00,,2013-01-19 13:33:00,
2013-01-19 07:42:00,29.0,25.0,30.19,SSE,155,0.0,0.0,83,0.00,,,0.00,,2013-01-19 13:42:00,
2013-01-19 07:53:00,28.0,24.0,30.19,SSE,155,0.0,1.0,85,0.00,,,0.00,,2013-01-19 13:53:00,
2013-01-19 08:02:00,29.0,25.0,30.20,SSE,155,0.0,1.0,85,0.00,,,0.00,,2013-01-19 14:02:00,
2013-01-19 08:12:00,29.0,25.0,30.20,SSE,155,0.0,1.0,85,0.00,,,0.00,,2013-01-19 14:12:00,
2013-01-19 08:23:00,31.0,26.0,30.19,SSE,157,0.0,0.0,81,0.00,,,0.00,,2013-01-19 14:23:00,
2013-01-19 08:34:00,35.0,29.0,30.19,SSE,155,0.0,0.0,78,0.00,,,0.00,,2013-01-19 14:34:00,
2013-01-19 08:43:00,35.0,29.0,30.19,SSE,155,0.0,0.0,78,0.00,,,0.00,,2013-01-19 14:43:00,
2013-01-19 08:53:00,39.0,29.0,30.19,SSE,155,0.0,0.0,67,0.00,,,0.00,,2013-01-19 14:53:00,
2013-01-19 09:03:00,41.0,30.0,30.20,SSE,156,0.0,0.0,65,0.00,,,0.00,,2013-01-19 15:03:00,
2013-01-19 09:12:00,41.0,30.0,30.20,SSE,156,0.0,0.0,65,0.00,,,0.00,,2013-01-19 15:12:00,
2013-01-19 09:23:00,45.0,31.0,30.20,SSE,156,0.0,0.0,57,0.00,,,0.00,,2013-01-19 15:23:00,
2013-01-19 09:33:00,46.0,30.0,30.20,SSW,197,0.0,2.0,54,0.00,,,0.00,,2013-01-19 15:33:00,
2013-01-19 09:43:00,46.0,30.0,30.20,SSW,197,0.0,2.0,54,0.00,,,0.00,,2013-01-19 15:43:00,
2013-01-19 09:53:00,47.0,31.0,30.20,WSW,246,0.0,1.0,53,0.00,,,0.00,,2013-01-19 15:53:00,
2013-01-19 10:03:00,49.0,32.0,30.20,South,180,1.0,4.0,51,0.00,,,0.00,,2013-01-19 16:03:00,
2013-01-19 10:13:00,49.0,32.0,30.20,South,180,1.0,4.0,51,0.00,,,0.00,,2013-01-19 16:13:00,
2013-01-19 10:23:00,51.0,33.0,30.21,SSE,162,2.0,4.0,49,0.00,,,0.00,,2013-01-19 16:23:00,
2013-01-19 10:33:00,53.0,33.0,30.20,WSW,243,7.0,14.0,47,0.00,,,0.00,,2013-01-19 16:33:00,
2013-01-19 10:43:00,53.0,33.0,30.20,WSW,243,7.0,14.0,47,0.00,,,0.00,,2013-01-19 16:43:00,
2013-01-19 10:53:00,54.0,34.0,30.19,SW,221,6.0,11.0,46,0.00,,,0.00,,2013-01-19 16:53:00,
2013-01-19 11:03:00,55.0,34.0,30.19,WSW,250,4.0,16.0,45,0.00,,,0.00,,2013-01-19 17:03:00,
2013-01-19 11:18:00,55.0,34.0,30.19,WSW,250,4.0,16.0,45,0.00,,,0.00,,2013-01-19 17:18:00,
2013-01-19 11:28:00,56.0,34.0,30.18,West,264,4.0,11.0,43,0.00,,,0.00,,2013-01-19 17:28:00,
2013-01-19 11:35:00,57.0,35.0,30.16,SW,215,6.0,14.0,43,0.00,,,0.00,,2013-01-19 17:35:00,
2013-01-19 11:47:00,57.0,35.0,30.16,SW,215,6.0,14.0,43,0.00,,,0.00,,2013-01-19 17:47:00,
2013-01-19 12:10:00,59.0,35.0,30.15,SSW,204,8.0,14.0,41,0.00,,,0.00,,2013-01-19 18:10:00,
2013-01-19 12:25:00,60.0,36.0,30.14,SSW,211,6.0,14.0,41,0.00,,,0.00,,2013-01-19 18:25:00,
2013-01-19 12:35:00,61.0,36.0,30.13,WSW,249,7.0,17.0,40,0.00,,,0.00,,2013-01-19 18:35:00,
2013-01-19 12:45:00,61.0,36.0,30.13,WSW,249,7.0,17.0,40,0.00,,,0.00,,2013-01-19 18:45:00,
2013-01-19 12:55:00,62.0,36.0,30.11,WSW,252,7.0,13.0,38,0.00,,,0.00,,2013-01-19 18:55:00,
2013-01-19 13:18:00,62.0,36.0,30.11,WSW,246,9.0,16.0,38,0.00,,,0.00,,2013-01-19 19:18:00,
2013-01-19 13:28:00,62.0,35.0,30.10,West,269,10.0,21.0,37,0.00,,,0.00,,2013-01-19 19:28:00,
2013-01-19 13:38:00,62.0,35.0,30.10,West,269,10.0,21.0,37,0.00,,,0.00,,2013-01-19 19:38:00,
2013-01-19 13:45:00,62.0,35.0,30.10,West,269,10.0,21.0,37,0.00,,,0.00,,2013-01-19 19:45:00,
2013-01-19 13:54:00,63.0,36.0,30.09,West,266,9.0,20.0,37,0.00,,,0.00,,2013-01-19 19:54:00,
2013-01-19 14:10:00,63.0,36.0,30.09,SW,236,8.0,19.0,36,0.00,,,0.00,,2013-01-19 20:10:00,
2013-01-19 14:19:00,63.0,36.0,30.09,SW,236,8.0,19.0,36,0.00,,,0.00,,2013-01-19 20:19:00,
2013-01-19 14:25:00,64.0,37.0,30.08,WSW,240,6.0,13.0,36,0.00,,,0.00,,2013-01-19 20:25:00,
2013-01-19 14:38:00,64.0,36.0,30.07,SW,232,10.0,18.0,35,0.00,,,0.00,,2013-01-19 20:38:00,
2013-01-19 14:45:00,64.0,36.0,30.07,SW,232,10.0,18.0,35,0.00,,,0.00,,2013-01-19 20:45:00,
2013-01-19 14:54:00,64.0,37.0,30.07,SW,233,10.0,18.0,36,0.00,,,0.00,,2013-01-19 20:54:00,
2013-01-19 15:06:00,64.0,37.0,30.06,SW,221,7.0,19.0,36,0.00,,,0.00,,2013-01-19 21:06:00,
2013-01-19 15:14:00,64.0,37.0,30.06,SW,221,7.0,19.0,36,0.00,,,0.00,,2013-01-19 21:14:00,
2013-01-19 15:25:00,64.0,37.0,30.06,SW,221,7.0,19.0,36,0.00,,,0.00,,2013-01-19 21:25:00,
2013-01-19 15:49:00,65.0,37.0,30.06,SW,222,6.0,14.0,35,0.00,,,0.00,,2013-01-19 21:49:00,
2013-01-19 16:00:00,65.0,34.0,30.06,SSW,205,8.0,19.0,31,0.00,,,0.00,,2013-01-19 22:00:00,
2013-01-19 16:13:00,65.0,36.0,30.06,SSW,194,7.0,13.0,34,0.00,,,0.00,,2013-01-19 22:13:00,
2013-01-19 16:25:00,65.0,37.0,30.06,WSW,246,4.0,17.0,35,0.00,,,0.00,,2013-01-19 22:25:00,
2013-01-19 16:34:00,65.0,37.0,30.06,SSW,210,4.0,13.0,35,0.00,,,0.00,,2013-01-19 22:34:00,
2013-01-19 16:46:00,65.0,37.0,30.06,SSW,210,4.0,13.0,35,0.00,,,0.00,,2013-01-19 22:46:00,
2013-01-19 16:54:00,65.0,37.0,30.06,WSW,244,3.0,8.0,35,0.00,,,0.00,,2013-01-19 22:54:00,
2013-01-19 17:13:00,64.0,36.0,30.07,WSW,248,6.0,11.0,35,0.00,,,0.00,,2013-01-19 23:13:00,
2013-01-19 17:25:00,63.0,36.0,30.07,SSW,207,5.0,11.0,36,0.00,,,0.00,,2013-01-19 23:25:00,
2013-01-19 17:34:00,62.0,35.0,30.07,SW,231,7.0,14.0,37,0.00,,,0.00,,2013-01-19 23:34:00,
2013-01-19 17:45:00,62.0,35.0,30.07,SW,231,7.0,14.0,37,0.00,,,0.00,,2013-01-19 23:45:00,
2013-01-19 17:58:00,60.0,35.0,30.07,SW,218,4.0,10.0,39,0.00,,,0.00,,2013-01-19 23:58:00,
2013-01-19 18:08:00,59.0,35.0,30.07,SSW,205,7.0,13.0,41,0.00,,,0.00,,2013-01-20 00:08:00,
2013-01-19 18:15:00,59.0,35.0,30.07,SSW,205,7.0,13.0,41,0.00,,,0.00,,2013-01-20 00:15:00,
2013-01-19 18:25:00,58.0,35.0,30.08,SSW,203,4.0,8.0,42,0.00,,,0.00,,2013-01-20 00:25:00,
2013-01-19 18:35:00,57.0,35.0,30.08,SSE,156,2.0,7.0,43,0.00,,,0.00,,2013-01-20 00:35:00,
2013-01-19 18:45:00,57.0,35.0,30.08,SSE,156,2.0,7.0,43,0.00,,,0.00,,2013-01-20 00:45:00,
2013-01-19 18:53:00,56.0,35.0,30.09,SSE,157,2.0,7.0,45,0.00,,,0.00,,2013-01-20 00:53:00,
2013-01-19 19:04:00,55.0,35.0,30.10,WSW,246,0.0,3.0,47,0.00,,,0.00,,2013-01-20 01:04:00,
2013-01-19 19:25:00,55.0,36.0,30.11,WSW,252,2.0,4.0,49,0.00,,,0.00,,2013-01-20 01:25:00,
2013-01-19 19:36:00,54.0,36.0,30.11,SSW,205,1.0,5.0,50,0.00,,,0.00,,2013-01-20 01:36:00,
2013-01-19 19:45:00,54.0,36.0,30.11,SSW,205,1.0,5.0,50,0.00,,,0.00,,2013-01-20 01:45:00,
2013-01-19 20:07:00,53.0,36.0,30.13,SW,215,1.0,5.0,53,0.00,,,0.00,,2013-01-20 02:07:00,
2013-01-19 20:14:00,53.0,36.0,30.13,SW,215,1.0,5.0,53,0.00,,,0.00,,2013-01-20 02:14:00,
2013-01-19 20:25:00,53.0,36.0,30.13,SW,215,1.0,5.0,53,0.00,,,0.00,,2013-01-20 02:25:00,
2013-01-19 20:35:00,52.0,37.0,30.14,SW,236,0.0,1.0,56,0.00,,,0.00,,2013-01-20 02:35:00,
2013-01-19 20:44:00,52.0,37.0,30.14,SW,236,0.0,1.0,56,0.00,,,0.00,,2013-01-20 02:44:00,
2013-01-19 20:59:00,50.0,36.0,30.15,SW,236,0.0,0.0,59,0.00,,,0.00,,2013-01-20 02:59:00,
2013-01-19 21:08:00,50.0,36.0,30.15,SW,236,0.0,0.0,59,0.00,,,0.00,,2013-01-20 03:08:00,
2013-01-19 21:14:00,50.0,36.0,30.15,SW,236,0.0,0.0,59,0.00,,,0.00,,2013-01-20 03:14:00,
2013-01-19 21:38:00,47.0,35.0,30.15,SW,225,0.0,1.0,64,0.00,,,0.00,,2013-01-20 03:38:00,
2013-01-19 21:45:00,47.0,35.0,30.15,SW,225,0.0,1.0,64,0.00,,,0.00,,2013-01-20 03:45:00,
2013-01-19 21:54:00,44.0,35.0,30.16,SW,225,0.0,0.0,70,0.00,,,0.00,,2013-01-20 03:54:00,
2013-01-19 22:05:00,44.0,36.0,30.16,SW,225,0.0,1.0,72,0.00,,,0.00,,2013-01-20 04:05:00,
2013-01-19 22:14:00,44.0,36.0,30.16,SW,225,0.0,1.0,72,0.00,,,0.00,,2013-01-20 04:14:00,
2013-01-19 22:25:00,43.0,35.0,30.16,SW,225,0.0,0.0,72,0.00,,,0.00,,2013-01-20 04:25:00,
2013-01-19 22:35:00,43.0,35.0,30.16,SW,225,0.0,0.0,74,0.00,,,0.00,,2013-01-20 04:35:00,
2013-01-19 22:44:00,43.0,35.0,30.16,SW,225,0.0,0.0,74,0.00,,,0.00,,2013-01-20 04:44:00,
2013-01-19 22:54:00,41.0,34.0,30.16,SW,219,0.0,0.0,77,0.00,,,0.00,,2013-01-20 04:54:00,
2013-01-19 23:04:00,40.0,34.0,30.16,SW,219,0.0,0.0,80,0.00,,,0.00,,2013-01-20 05:04:00,
2013-01-19 23:12:00,40.0,34.0,30.16,SW,219,0.0,0.0,80,0.00,,,0.00,,2013-01-20 05:12:00,
2013-01-19 23:22:00,39.0,34.0,30.16,SW,219,0.0,1.0,81,0.00,,,0.00,,2013-01-20 05:22:00,
2013-01-19 23:32:00,40.0,35.0,30.16,WNW,298,0.0,1.0,81,0.00,,,0.00,,2013-01-20 05:32:00,
2013-01-19 23:42:00,40.0,35.0,30.16,WNW,298,0.0,1.0,81,0.00,,,0.00,,2013-01-20 05:42:00,
2013-01-19 23:53:00,39.0,34.0,30.16,WNW,297,0.0,0.0,83,0.00,,,0.00,,2013-01-20 05:53:00,